createdAt,value
2019-04-07T00:02:01.117Z,7.45
2019-04-07T00:04:31.080Z,7.49
2019-04-07T00:06:58.824Z,7.44
2019-04-07T00:09:26.129Z,7.42
2019-04-07T00:11:54.165Z,7.32
2019-04-07T00:14:21.461Z,7.33
2019-04-07T00:16:50.599Z,7.28
2019-04-07T00:19:18.126Z,7.28
2019-04-07T00:21:46.029Z,7.24
2019-04-07T00:24:13.644Z,7.29
2019-04-07T00:26:41.621Z,7.30
2019-04-07T00:29:09.743Z,7.23
2019-04-07T00:31:37.372Z,7.09
2019-04-07T00:34:05.290Z,7.05
2019-04-07T00:36:34.080Z,6.92
2019-04-07T00:39:01.562Z,7.07
2019-04-07T00:41:40.277Z,7.16
2019-04-07T00:44:09.785Z,7.23
2019-04-07T00:46:37.143Z,7.24
2019-04-07T00:49:04.265Z,7.17
2019-04-07T00:51:33.337Z,7.12
2019-04-07T00:54:00.684Z,6.97
2019-04-07T00:56:28.475Z,6.97
2019-04-07T00:58:56.397Z,7.07
2019-04-07T01:01:24.447Z,7.09
2019-04-07T01:03:51.517Z,7.08
2019-04-07T01:06:18.765Z,7.12
2019-04-07T01:08:47.847Z,7.11
2019-04-07T01:11:14.835Z,7.05
2019-04-07T01:13:42.728Z,6.95
2019-04-07T01:16:09.829Z,6.97
2019-04-07T01:18:37.115Z,6.95
2019-04-07T01:21:04.815Z,6.94
2019-04-07T01:23:32.470Z,6.85
2019-04-07T01:25:59.609Z,6.88
2019-04-07T01:28:27.483Z,6.84
2019-04-07T01:30:54.587Z,6.58
2019-04-07T01:33:21.797Z,6.36
2019-04-07T01:35:50.277Z,6.35
2019-04-07T01:38:17.892Z,6.29
2019-04-07T01:40:46.738Z,6.42
2019-04-07T01:43:21.711Z,6.40
2019-04-07T01:46:07.072Z,6.44
2019-04-07T01:48:42.224Z,6.49
2019-04-07T01:51:23.709Z,6.50
2019-04-07T01:54:02.107Z,6.52
2019-04-07T01:56:32.643Z,6.50
2019-04-07T01:59:02.573Z,6.49
2019-04-07T02:01:48.134Z,6.51
2019-04-07T02:04:14.956Z,6.35
2019-04-07T02:07:00.826Z,6.22
2019-04-07T02:09:58.620Z,6.13
2019-04-07T02:12:28.925Z,6.22
2019-04-07T02:14:57.773Z,6.36
2019-04-07T02:17:40.597Z,6.41
2019-04-07T02:20:36.095Z,6.44
2019-04-07T02:23:06.340Z,6.28
2019-04-07T02:25:36.160Z,6.17
2019-04-07T02:28:12.185Z,6.12
2019-04-07T02:30:48.055Z,6.09
2019-04-07T02:33:24.329Z,6.08
2019-04-07T02:35:54.439Z,6.00
2019-04-07T02:38:27.471Z,5.92
2019-04-07T02:40:59.888Z,5.91
2019-04-07T02:43:27.668Z,5.90
2019-04-07T02:46:13.076Z,5.65
2019-04-07T02:48:43.378Z,5.69
2019-04-07T02:51:15.751Z,5.81
2019-04-07T02:54:02.424Z,5.89
2019-04-07T02:56:38.288Z,5.99
2019-04-07T02:59:10.239Z,6.07
2019-04-07T03:01:48.482Z,6.03
2019-04-07T03:04:26.809Z,6.05
2019-04-07T03:06:56.815Z,5.90
2019-04-07T03:09:44.529Z,5.87
2019-04-07T03:12:26.140Z,5.83
2019-04-07T03:14:59.261Z,5.78
2019-04-07T03:17:41.588Z,5.75
2019-04-07T03:20:15.336Z,5.74
2019-04-07T03:23:02.162Z,5.74
2019-04-07T03:25:36.853Z,5.63
2019-04-07T03:28:08.814Z,5.53
2019-04-07T03:30:40.495Z,5.25
2019-04-07T03:33:13.384Z,5.30
2019-04-07T03:35:56.762Z,5.37
2019-04-07T03:38:42.872Z,5.42
2019-04-07T03:41:14.134Z,5.40
2019-04-07T03:43:46.453Z,5.18
2019-04-07T03:46:16.053Z,5.07
2019-04-07T03:48:48.067Z,5.18
2019-04-07T03:51:28.802Z,5.30
2019-04-07T03:54:03.481Z,5.39
2019-04-07T03:56:43.578Z,5.48
2019-04-07T03:59:33.296Z,5.31
2019-04-07T04:02:18.531Z,5.36
2019-04-07T04:04:47.358Z,5.46
2019-04-07T04:07:27.585Z,5.40
2019-04-07T04:09:47.607Z,5.49
2019-04-07T04:12:17.416Z,5.54
2019-04-07T04:14:48.715Z,5.29
2019-04-07T04:17:16.459Z,5.13
2019-04-07T04:19:44.023Z,5.29
2019-04-07T04:22:14.137Z,5.26
2019-04-07T04:24:42.185Z,5.28
2019-04-07T04:27:09.225Z,5.12
2019-04-07T04:29:37.390Z,5.13
2019-04-07T04:32:04.429Z,5.23
2019-04-07T04:34:31.869Z,5.04
2019-04-07T04:37:00.086Z,4.92
2019-04-07T04:39:27.288Z,5.18
2019-04-07T04:41:54.323Z,5.39
2019-04-07T04:44:22.459Z,5.31
2019-04-07T04:46:49.405Z,5.44
2019-04-07T04:49:16.978Z,5.49
2019-04-07T04:51:44.537Z,5.42
2019-04-07T04:54:12.516Z,5.43
2019-04-07T04:56:39.886Z,5.37
2019-04-07T04:59:07.437Z,5.07
2019-04-07T05:01:36.083Z,5.13
2019-04-07T05:04:03.936Z,5.18
2019-04-07T05:06:31.273Z,5.23
2019-04-07T05:08:58.260Z,5.34
2019-04-07T05:11:25.028Z,5.37
2019-04-07T05:13:52.847Z,5.31
2019-04-07T05:16:19.918Z,5.30
2019-04-07T05:18:47.064Z,5.31
2019-04-07T05:21:13.963Z,5.31
2019-04-07T05:23:41.298Z,5.26
2019-04-07T05:26:08.508Z,5.27
2019-04-07T05:28:36.995Z,5.32
2019-04-07T05:31:05.618Z,5.36
2019-04-07T05:33:32.691Z,5.40
2019-04-07T05:35:59.641Z,5.39
2019-04-07T05:38:26.536Z,5.41
2019-04-07T05:40:54.095Z,5.40
2019-04-07T05:43:21.480Z,5.44
2019-04-07T05:45:48.986Z,5.35
2019-04-07T05:48:18.532Z,5.39
2019-04-07T05:50:44.949Z,5.41
2019-04-07T05:53:14.772Z,5.45
2019-04-07T05:55:41.720Z,5.49
2019-04-07T05:58:08.826Z,5.54
2019-04-07T06:00:37.146Z,5.66
2019-04-07T06:03:07.842Z,5.74
2019-04-07T06:05:33.452Z,5.73
2019-04-07T06:08:18.722Z,5.78
2019-04-07T06:10:30.570Z,5.86
2019-04-07T06:12:57.445Z,5.95
2019-04-07T06:15:24.730Z,6.02
2019-04-07T06:17:52.210Z,5.94
2019-04-07T06:20:19.374Z,5.87
2019-04-07T06:22:46.973Z,5.94
2019-04-07T06:25:14.627Z,5.99
2019-04-07T06:27:44.927Z,6.03
2019-04-07T06:30:13.084Z,6.10
2019-04-07T06:32:40.808Z,6.13
2019-04-07T06:35:12.320Z,6.08
2019-04-07T06:37:38.715Z,5.99
2019-04-07T06:40:07.019Z,6.03
2019-04-07T06:42:34.317Z,6.11
2019-04-07T06:45:06.501Z,6.14
2019-04-07T06:47:42.205Z,6.14
2019-04-07T06:50:14.201Z,6.21
2019-04-07T06:52:53.147Z,6.34
2019-04-07T06:55:44.927Z,6.38
2019-04-07T06:58:14.413Z,6.40
2019-04-07T07:00:53.606Z,6.48
2019-04-07T07:03:29.409Z,6.55
2019-04-07T07:06:18.395Z,6.63
2019-04-07T07:08:48.664Z,6.69
2019-04-07T07:11:34.354Z,6.76
2019-04-07T07:14:31.404Z,6.93
2019-04-07T07:16:51.069Z,6.99
2019-04-07T07:19:39.159Z,7.06
2019-04-07T07:22:20.374Z,7.12
2019-04-07T07:24:49.123Z,7.06
2019-04-07T07:27:17.647Z,7.06
2019-04-07T07:29:45.842Z,7.15
2019-04-07T07:32:15.926Z,7.27
2019-04-07T07:34:43.941Z,7.29
2019-04-07T07:37:11.699Z,7.31
2019-04-07T07:39:42.596Z,7.44
2019-04-07T07:42:09.402Z,7.66
2019-04-07T07:44:38.512Z,7.85
2019-04-07T07:47:06.896Z,8.14
2019-04-07T07:49:37.078Z,8.23
2019-04-07T07:52:04.027Z,8.37
2019-04-07T07:54:31.622Z,8.53
2019-04-07T07:56:59.115Z,8.78
2019-04-07T07:59:26.298Z,9.11
2019-04-07T08:01:56.250Z,9.40
2019-04-07T08:04:26.415Z,9.64
2019-04-07T08:06:54.415Z,9.86
2019-04-07T08:09:24.961Z,10.05
2019-04-07T08:11:52.623Z,10.29
2019-04-07T08:14:19.917Z,10.48
2019-04-07T08:16:46.802Z,10.63
2019-04-07T08:19:14.530Z,10.76
2019-04-07T08:21:43.659Z,11.00
2019-04-07T08:24:11.311Z,11.24
2019-04-07T08:26:39.339Z,11.50
2019-04-07T08:29:07.754Z,11.73
2019-04-07T08:31:35.261Z,11.94
2019-04-07T08:34:03.751Z,12.24
2019-04-07T08:36:31.374Z,12.50
2019-04-07T08:38:59.489Z,12.77
2019-04-07T08:41:26.719Z,13.04
2019-04-07T08:43:56.654Z,13.27
2019-04-07T08:46:25.163Z,13.45
2019-04-07T08:48:55.302Z,13.70
2019-04-07T08:51:22.496Z,14.03
2019-04-07T08:53:49.624Z,14.37
2019-04-07T08:56:16.708Z,14.66
2019-04-07T08:58:43.837Z,14.86
2019-04-07T09:01:11.010Z,15.06
2019-04-07T09:03:37.826Z,15.25
2019-04-07T09:06:05.106Z,15.46
2019-04-07T09:08:34.670Z,15.63
2019-04-07T09:11:08.990Z,15.49
2019-04-07T09:13:36.334Z,15.62
2019-04-07T09:16:24.698Z,15.86
2019-04-07T09:19:10.189Z,15.99
2019-04-07T09:21:42.005Z,16.01
2019-04-07T09:24:08.315Z,16.16
2019-04-07T09:26:51.071Z,16.42
2019-04-07T09:29:32.847Z,16.21
2019-04-07T09:32:19.266Z,15.86
2019-04-07T09:34:57.238Z,15.48
2019-04-07T09:37:38.806Z,15.27
2019-04-07T09:40:23.563Z,15.01
2019-04-07T09:42:58.731Z,14.79
2019-04-07T09:45:32.495Z,14.90
2019-04-07T09:48:02.177Z,14.87
2019-04-07T09:50:47.069Z,14.83
2019-04-07T09:53:28.633Z,14.86
2019-04-07T09:56:11.931Z,14.80
2019-04-07T09:58:45.376Z,14.66
2019-04-07T10:01:19.811Z,14.51
2019-04-07T10:03:55.396Z,14.37
2019-04-07T10:06:25.647Z,14.27
2019-04-07T10:09:11.336Z,14.22
2019-04-07T10:11:38.550Z,14.19
2019-04-07T10:14:07.914Z,14.12
2019-04-07T10:16:39.512Z,14.12
2019-04-07T10:19:10.959Z,14.10
2019-04-07T10:21:38.310Z,14.08
2019-04-07T10:24:13.248Z,14.06
2019-04-07T10:26:47.332Z,14.07
2019-04-07T10:29:18.768Z,14.09
2019-04-07T10:31:58.595Z,14.07
2019-04-07T10:34:26.002Z,14.17
2019-04-07T10:37:11.723Z,14.34
2019-04-07T10:39:56.020Z,14.47
2019-04-07T10:42:27.237Z,15.09
2019-04-07T10:44:57.167Z,15.64
2019-04-07T10:47:30.268Z,15.98
2019-04-07T10:50:16.888Z,16.51
2019-04-07T10:52:56.286Z,16.46
2019-04-07T10:55:25.508Z,16.56
2019-04-07T10:58:04.390Z,17.24
2019-04-07T11:00:41.322Z,17.55
2019-04-07T11:03:08.366Z,17.42
2019-04-07T11:05:36.284Z,17.72
2019-04-07T11:08:24.409Z,18.27
2019-04-07T11:10:56.243Z,18.63
2019-04-07T11:13:28.937Z,19.18
2019-04-07T11:16:06.202Z,19.35
2019-04-07T11:18:36.410Z,19.43
2019-04-07T11:21:06.200Z,19.17
2019-04-07T11:23:45.262Z,19.41
2019-04-07T11:26:33.201Z,19.77
2019-04-07T11:29:04.375Z,20.41
2019-04-07T11:31:37.071Z,21.06
2019-04-07T11:34:25.433Z,21.61
2019-04-07T11:37:12.180Z,21.39
2019-04-07T11:39:44.643Z,20.48
2019-04-07T11:42:18.479Z,20.91
2019-04-07T11:45:05.043Z,21.47
2019-04-07T11:47:38.064Z,22.04
2019-04-07T11:50:27.970Z,22.62
2019-04-07T11:52:57.267Z,22.66
2019-04-07T11:55:44.263Z,21.65
2019-04-07T11:58:30.456Z,21.38
2019-04-07T12:00:58.213Z,21.60
2019-04-07T12:03:42.909Z,20.99
2019-04-07T12:06:17.066Z,20.01
2019-04-07T12:08:51.116Z,20.97
2019-04-07T12:11:21.304Z,21.99
2019-04-07T12:13:52.568Z,23.03
2019-04-07T12:16:28.683Z,22.60
2019-04-07T12:19:04.496Z,21.90
2019-04-07T12:21:37.187Z,21.97
2019-04-07T12:24:12.333Z,21.88
2019-04-07T12:26:43.632Z,22.10
2019-04-07T12:29:14.202Z,22.18
2019-04-07T12:32:02.372Z,21.85
2019-04-07T12:37:44.575Z,21.15
2019-04-07T12:40:22.337Z,21.15
2019-04-07T12:43:02.586Z,20.37
2019-04-07T12:45:49.367Z,19.65
2019-04-07T12:48:36.280Z,20.59
2019-04-07T12:51:24.657Z,21.29
2019-04-07T12:54:09.486Z,21.94
2019-04-07T12:56:57.750Z,22.74
2019-04-07T12:59:34.708Z,23.13
2019-04-07T13:02:09.326Z,23.47
2019-04-07T13:04:50.596Z,23.61
2019-04-07T13:07:38.718Z,24.12
2019-04-07T13:10:22.386Z,24.65
2019-04-07T13:12:55.809Z,24.59
2019-04-07T13:15:24.824Z,24.30
2019-04-07T13:17:53.699Z,24.51
2019-04-07T13:20:26.716Z,24.91
2019-04-07T13:23:01.554Z,24.71
2019-04-07T13:25:47.415Z,23.06
2019-04-07T13:28:16.749Z,21.35
2019-04-07T13:30:45.660Z,20.26
2019-04-07T13:33:28.403Z,21.69
2019-04-07T13:35:59.464Z,22.69
2019-04-07T13:38:45.765Z,23.22
2019-04-07T13:41:24.002Z,23.60
2019-04-07T13:44:12.980Z,23.71
2019-04-07T13:46:44.466Z,23.72
2019-04-07T13:49:43.047Z,23.68
2019-04-07T13:52:19.287Z,22.99
2019-04-07T13:54:47.268Z,22.12
2019-04-07T13:57:26.464Z,22.75
2019-04-07T13:59:57.810Z,23.38
2019-04-07T14:02:30.206Z,23.80
2019-04-07T14:05:04.872Z,24.02
2019-04-07T14:07:35.206Z,23.55
2019-04-07T14:10:11.332Z,22.29
2019-04-07T14:12:42.235Z,21.36
2019-04-07T14:15:21.624Z,20.56
2019-04-07T14:18:04.830Z,20.56
2019-04-07T14:20:38.785Z,19.75
2019-04-07T14:23:25.274Z,19.32
2019-04-07T14:25:54.898Z,19.12
2019-04-07T14:28:28.742Z,19.30
2019-04-07T14:31:12.804Z,19.14
2019-04-07T14:34:02.200Z,19.09
2019-04-07T14:36:48.180Z,19.44
2019-04-07T14:39:17.570Z,19.71
2019-04-07T14:42:03.954Z,20.27
2019-04-07T14:44:30.416Z,20.65
2019-04-07T14:46:58.156Z,20.82
2019-04-07T14:49:51.566Z,21.33
2019-04-07T14:52:31.831Z,21.70
2019-04-07T14:55:20.606Z,21.97
2019-04-07T14:57:50.257Z,21.66
2019-04-07T15:00:18.348Z,20.92
2019-04-07T15:02:46.616Z,20.48
2019-04-07T15:05:22.180Z,20.23
2019-04-07T15:07:59.499Z,20.06
2019-04-07T15:10:31.734Z,19.65
2019-04-07T15:13:05.356Z,19.32
2019-04-07T15:15:35.727Z,19.13
2019-04-07T15:18:03.790Z,19.02
2019-04-07T15:20:31.157Z,18.93
2019-04-07T15:22:59.917Z,18.64
2019-04-07T15:25:28.822Z,18.38
2019-04-07T15:27:58.900Z,18.24
2019-04-07T15:30:26.498Z,18.05
2019-04-07T15:32:57.706Z,18.01
2019-04-07T15:35:24.359Z,17.85
2019-04-07T15:37:52.459Z,17.72
2019-04-07T15:40:20.374Z,17.64
2019-04-07T15:42:50.700Z,17.59
2019-04-07T15:45:20.579Z,17.51
2019-04-07T15:47:51.321Z,17.45
2019-04-07T15:50:18.087Z,17.37
2019-04-07T15:52:46.969Z,17.22
2019-04-07T15:55:18.871Z,17.06
2019-04-07T15:57:46.756Z,16.95
2019-04-07T16:00:16.531Z,16.92
2019-04-07T16:02:44.389Z,16.89
2019-04-07T16:05:11.743Z,16.86
2019-04-07T16:07:42.054Z,16.84
2019-04-07T16:10:10.115Z,16.80
2019-04-07T16:12:44.564Z,16.77
2019-04-07T16:15:11.259Z,16.76
2019-04-07T16:17:41.292Z,16.71
2019-04-07T16:20:19.915Z,16.62
2019-04-07T16:22:51.898Z,16.62
2019-04-07T16:25:19.646Z,16.60
2019-04-07T16:27:47.665Z,16.58
2019-04-07T16:30:16.474Z,16.52
2019-04-07T16:32:44.965Z,16.48
2019-04-07T16:35:15.580Z,16.43
2019-04-07T16:37:43.812Z,16.34
2019-04-07T16:40:13.033Z,16.32
2019-04-07T16:42:40.490Z,16.31
2019-04-07T16:45:13.773Z,16.27
2019-04-07T16:47:38.950Z,16.16
2019-04-07T16:50:07.621Z,16.13
2019-04-07T16:52:36.428Z,16.12
2019-04-07T16:55:09.273Z,16.07
2019-04-07T16:57:37.414Z,16.04
2019-04-07T17:00:14.380Z,16.06
2019-04-07T17:02:42.779Z,16.06
2019-04-07T17:05:10.080Z,16.06
2019-04-07T17:07:37.048Z,16.04
2019-04-07T17:10:05.007Z,16.00
2019-04-07T17:12:32.349Z,15.91
2019-04-07T17:15:00.169Z,15.85
2019-04-07T17:17:28.169Z,15.85
2019-04-07T17:19:59.491Z,15.78
2019-04-07T17:22:27.228Z,15.75
2019-04-07T17:24:58.220Z,15.70
2019-04-07T17:27:24.839Z,15.65
2019-04-07T17:29:55.048Z,15.65
2019-04-07T17:32:23.128Z,15.62
2019-04-07T17:34:50.887Z,15.57
2019-04-07T17:37:20.089Z,15.48
2019-04-07T17:40:04.523Z,15.45
2019-04-07T17:42:32.349Z,15.41
2019-04-07T17:44:59.634Z,15.30
2019-04-07T17:47:29.574Z,15.23
2019-04-07T17:50:09.259Z,15.21
2019-04-07T17:52:40.457Z,15.19
2019-04-07T17:55:08.144Z,15.11
2019-04-07T17:57:53.494Z,15.08
2019-04-07T18:00:42.568Z,15.01
2019-04-07T18:03:21.621Z,14.93
2019-04-07T18:06:05.865Z,14.93
2019-04-07T18:08:36.206Z,14.90
2019-04-07T18:11:14.297Z,14.84
2019-04-07T18:13:49.900Z,14.71
2019-04-07T18:16:21.324Z,14.67
2019-04-07T18:19:06.812Z,14.66
2019-04-07T18:21:53.870Z,14.60
2019-04-07T18:24:30.830Z,14.53
2019-04-07T18:27:19.505Z,14.50
2019-04-07T18:29:55.166Z,14.42
2019-04-07T18:32:28.632Z,14.40
2019-04-07T18:35:04.190Z,14.33
2019-04-07T18:37:52.786Z,14.29
2019-04-07T18:40:26.292Z,14.24
2019-04-07T18:42:54.506Z,14.14
2019-04-07T18:45:31.902Z,14.15
2019-04-07T18:48:18.114Z,14.12
2019-04-07T18:51:07.974Z,14.10
2019-04-07T18:53:53.189Z,14.13
2019-04-07T18:56:34.632Z,14.05
2019-04-07T18:59:04.293Z,14.04
2019-04-07T19:01:51.065Z,14.03
2019-04-07T19:04:38.106Z,14.03
2019-04-07T19:07:07.823Z,14.05
2019-04-07T19:09:47.703Z,14.04
2019-04-07T19:12:22.994Z,13.99
2019-04-07T19:15:08.219Z,13.97
2019-04-07T19:17:32.657Z,13.91
2019-04-07T19:20:23.813Z,13.90
2019-04-07T19:22:54.062Z,13.89
2019-04-07T19:25:42.642Z,13.92
2019-04-07T19:28:23.198Z,13.94
2019-04-07T19:31:04.447Z,13.88
2019-04-07T19:33:49.405Z,13.85
2019-04-07T19:36:30.580Z,13.87
2019-04-07T19:39:02.784Z,13.82
2019-04-07T19:41:45.418Z,13.76
2019-04-07T19:44:38.502Z,13.68
2019-04-07T19:47:04.639Z,13.69
2019-04-07T19:49:37.460Z,13.71
2019-04-07T19:52:23.488Z,13.66
2019-04-07T19:55:08.892Z,13.63
2019-04-07T19:57:48.402Z,13.59
2019-04-07T20:00:30.959Z,13.56
2019-04-07T20:03:17.812Z,13.52
2019-04-07T20:06:09.932Z,13.47
2019-04-07T20:08:40.071Z,13.40
2019-04-07T20:11:09.814Z,13.37
2019-04-07T20:13:40.978Z,13.38
2019-04-07T20:16:28.334Z,13.40
2019-04-07T20:18:59.478Z,13.38
2019-04-07T20:21:39.050Z,13.40
2019-04-07T20:24:07.364Z,13.38
2019-04-07T20:26:42.685Z,13.34
2019-04-07T20:29:31.082Z,13.30
2019-04-07T20:32:05.172Z,13.28
2019-04-07T20:34:37.437Z,13.24
2019-04-07T20:37:12.872Z,13.26
2019-04-07T20:39:43.459Z,13.23
2019-04-07T20:42:23.583Z,13.14
2019-04-07T20:45:16.259Z,13.12
2019-04-07T20:47:51.336Z,13.10
2019-04-07T20:50:26.284Z,13.14
2019-04-07T20:53:08.370Z,13.09
2019-04-07T20:55:41.264Z,13.04
2019-04-07T20:58:23.871Z,12.98
2019-04-07T21:00:59.683Z,12.98
2019-04-07T21:03:40.417Z,12.97
2019-04-07T21:06:12.636Z,12.89
2019-04-07T21:08:41.946Z,12.89
2019-04-07T21:11:13.586Z,12.90
2019-04-07T21:13:43.047Z,12.91
2019-04-07T21:16:10.562Z,12.88
2019-04-07T21:18:40.285Z,12.87
2019-04-07T21:21:11.935Z,12.75
2019-04-07T21:23:43.333Z,12.73
2019-04-07T21:26:15.512Z,12.79
2019-04-07T21:28:44.412Z,12.75
2019-04-07T21:31:20.414Z,12.79
2019-04-07T21:33:55.875Z,12.79
2019-04-07T21:36:28.594Z,12.80
2019-04-07T21:39:16.233Z,12.81
2019-04-07T21:41:45.188Z,12.76
2019-04-07T21:44:27.011Z,12.66
2019-04-07T21:47:04.326Z,12.59
2019-04-07T21:49:34.752Z,12.52
2019-04-07T21:52:05.407Z,12.52
2019-04-07T21:54:42.999Z,12.46
2019-04-07T21:57:15.147Z,12.52
2019-04-07T21:59:52.173Z,12.46
2019-04-07T22:02:27.447Z,12.46
2019-04-07T22:04:57.022Z,12.49
2019-04-07T22:07:27.658Z,12.47
2019-04-07T22:10:03.843Z,12.45
2019-04-07T22:12:32.564Z,12.36
2019-04-07T22:15:00.334Z,12.38
2019-04-07T22:17:27.693Z,12.38
2019-04-07T22:19:55.069Z,12.36
2019-04-07T22:22:24.089Z,12.35
2019-04-07T22:24:51.559Z,12.43
2019-04-07T22:27:22.644Z,12.44
2019-04-07T22:29:48.982Z,12.37
2019-04-07T22:32:19.240Z,12.35
2019-04-07T22:34:46.114Z,12.33
2019-04-07T22:37:15.572Z,12.33
2019-04-07T22:39:42.258Z,12.27
2019-04-07T22:42:12.807Z,12.26
2019-04-07T22:44:38.587Z,12.29
2019-04-07T22:47:07.011Z,12.30
2019-04-07T22:49:37.692Z,12.32
2019-04-07T22:52:06.514Z,12.37
2019-04-07T22:54:34.925Z,12.31
2019-04-07T22:57:02.875Z,12.32
2019-04-07T22:59:30.197Z,12.32
2019-04-07T23:01:58.048Z,12.36
2019-04-07T23:04:25.842Z,12.29
2019-04-07T23:06:52.878Z,12.25
2019-04-07T23:09:19.691Z,12.25
2019-04-07T23:11:47.035Z,12.25
2019-04-07T23:14:14.582Z,12.22
2019-04-07T23:16:42.261Z,12.24
2019-04-07T23:19:09.615Z,12.28
2019-04-07T23:21:38.298Z,12.27
2019-04-07T23:24:05.522Z,12.28
2019-04-07T23:26:32.574Z,12.27
2019-04-07T23:28:59.527Z,12.29
2019-04-07T23:31:27.887Z,12.32
2019-04-07T23:33:56.537Z,12.29
2019-04-07T23:36:24.245Z,12.28
2019-04-07T23:38:51.960Z,12.27
2019-04-07T23:41:20.178Z,12.25
2019-04-07T23:43:47.807Z,12.24
2019-04-07T23:46:23.172Z,12.21
2019-04-07T23:48:47.604Z,12.14
2019-04-07T23:51:14.501Z,12.13
2019-04-07T23:54:08.998Z,12.11
2019-04-07T23:56:39.424Z,12.14
2019-04-07T23:59:08.073Z,12.11
